sensor_id;sensor_type;location;lat;lon;timestamp;P1;durP1;ratioP1;P2;durP2;ratioP2
7166;SDS011;3625;51.762;14.320;2023-11-19T00:01:07;6.57;;;5.97;;
7166;SDS011;3625;51.762;14.320;2023-11-19T00:03:36;5.77;;;5.13;;
7166;SDS011;3625;51.762;14.320;2023-11-19T00:06:07;5.97;;;5.23;;
7166;SDS011;3625;51.762;14.320;2023-11-19T00:08:37;5.93;;;5.43;;
7166;SDS011;3625;51.762;14.320;2023-11-19T00:11:06;6.23;;;5.63;;
7166;SDS011;3625;51.762;14.320;2023-11-19T00:13:35;6.37;;;5.80;;
7166;SDS011;3625;51.762;14.320;2023-11-19T00:16:05;5.60;;;5.13;;
7166;SDS011;3625;51.762;14.320;2023-11-19T00:18:36;5.97;;;5.37;;
7166;SDS011;3625;51.762;14.320;2023-11-19T00:21:07;6.37;;;5.50;;
7166;SDS011;3625;51.762;14.320;2023-11-19T00:23:37;6.20;;;5.50;;
7166;SDS011;3625;51.762;14.320;2023-11-19T00:26:06;5.97;;;5.33;;
7166;SDS011;3625;51.762;14.320;2023-11-19T00:29:30;5.70;;;5.20;;
7166;SDS011;3625;51.762;14.320;2023-11-19T00:32:04;6.43;;;5.17;;
7166;SDS011;3625;51.762;14.320;2023-11-19T00:34:59;5.93;;;5.33;;
7166;SDS011;3625;51.762;14.320;2023-11-19T00:37:30;6.40;;;5.80;;
7166;SDS011;3625;51.762;14.320;2023-11-19T00:40:00;5.37;;;4.97;;
7166;SDS011;3625;51.762;14.320;2023-11-19T00:42:32;6.47;;;5.87;;
7166;SDS011;3625;51.762;14.320;2023-11-19T00:45:01;6.67;;;5.23;;
7166;SDS011;3625;51.762;14.320;2023-11-19T00:47:32;6.40;;;5.80;;
7166;SDS011;3625;51.762;14.320;2023-11-19T00:50:01;7.40;;;6.10;;
7166;SDS011;3625;51.762;14.320;2023-11-19T00:52:32;5.37;;;4.87;;
7166;SDS011;3625;51.762;14.320;2023-11-19T00:55:02;5.77;;;5.27;;
7166;SDS011;3625;51.762;14.320;2023-11-19T00:57:32;5.70;;;5.20;;
7166;SDS011;3625;51.762;14.320;2023-11-19T01:00:02;5.37;;;4.87;;
7166;SDS011;3625;51.762;14.320;2023-11-19T01:02:36;6.20;;;5.60;;
7166;SDS011;3625;51.762;14.320;2023-11-19T01:05:08;6.77;;;6.07;;
7166;SDS011;3625;51.762;14.320;2023-11-19T01:07:42;6.23;;;5.23;;
7166;SDS011;3625;51.762;14.320;2023-11-19T01:10:11;6.20;;;5.60;;
7166;SDS011;3625;51.762;14.320;2023-11-19T01:12:42;7.30;;;5.97;;
7166;SDS011;3625;51.762;14.320;2023-11-19T01:15:11;6.20;;;5.60;;
7166;SDS011;3625;51.762;14.320;2023-11-19T01:17:40;5.80;;;5.20;;
7166;SDS011;3625;51.762;14.320;2023-11-19T01:20:13;6.37;;;5.77;;
7166;SDS011;3625;51.762;14.320;2023-11-19T01:22:43;5.93;;;5.33;;
7166;SDS011;3625;51.762;14.320;2023-11-19T01:25:12;5.77;;;5.27;;
7166;SDS011;3625;51.762;14.320;2023-11-19T01:27:41;6.40;;;5.80;;
7166;SDS011;3625;51.762;14.320;2023-11-19T01:30:10;5.90;;;5.40;;
7166;SDS011;3625;51.762;14.320;2023-11-19T01:32:40;6.30;;;5.70;;
7166;SDS011;3625;51.762;14.320;2023-11-19T01:35:09;5.77;;;5.07;;
7166;SDS011;3625;51.762;14.320;2023-11-19T01:37:38;6.00;;;5.40;;
7166;SDS011;3625;51.762;14.320;2023-11-19T01:40:09;6.13;;;5.43;;
7166;SDS011;3625;51.762;14.320;2023-11-19T01:42:39;6.67;;;6.07;;
7166;SDS011;3625;51.762;14.320;2023-11-19T01:45:08;6.07;;;5.57;;
7166;SDS011;3625;51.762;14.320;2023-11-19T01:47:47;6.17;;;5.63;;
7166;SDS011;3625;51.762;14.320;2023-11-19T01:50:16;6.67;;;5.17;;
7166;SDS011;3625;51.762;14.320;2023-11-19T01:52:46;6.10;;;5.30;;
7166;SDS011;3625;51.762;14.320;2023-11-19T01:55:17;5.33;;;4.83;;
7166;SDS011;3625;51.762;14.320;2023-11-19T01:57:47;6.17;;;5.57;;
7166;SDS011;3625;51.762;14.320;2023-11-19T02:00:18;6.00;;;5.40;;
7166;SDS011;3625;51.762;14.320;2023-11-19T02:02:47;5.37;;;4.97;;
7166;SDS011;3625;51.762;14.320;2023-11-19T02:05:18;7.53;;;6.23;;
7166;SDS011;3625;51.762;14.320;2023-11-19T02:07:48;7.23;;;6.00;;
7166;SDS011;3625;51.762;14.320;2023-11-19T02:10:19;6.13;;;5.63;;
7166;SDS011;3625;51.762;14.320;2023-11-19T02:12:51;5.70;;;5.17;;
7166;SDS011;3625;51.762;14.320;2023-11-19T02:15:32;6.47;;;5.27;;
7166;SDS011;3625;51.762;14.320;2023-11-19T02:18:17;5.90;;;5.40;;
7166;SDS011;3625;51.762;14.320;2023-11-19T02:20:46;6.03;;;5.43;;
7166;SDS011;3625;51.762;14.320;2023-11-19T02:23:16;5.40;;;4.90;;
7166;SDS011;3625;51.762;14.320;2023-11-19T02:25:50;5.20;;;4.70;;
7166;SDS011;3625;51.762;14.320;2023-11-19T02:28:33;6.00;;;5.40;;
7166;SDS011;3625;51.762;14.320;2023-11-19T02:31:03;5.93;;;5.23;;
7166;SDS011;3625;51.762;14.320;2023-11-19T02:33:36;5.40;;;4.90;;
7166;SDS011;3625;51.762;14.320;2023-11-19T02:36:06;5.97;;;5.47;;
7166;SDS011;3625;51.762;14.320;2023-11-19T02:38:36;5.33;;;4.93;;
7166;SDS011;3625;51.762;14.320;2023-11-19T02:41:06;4.80;;;4.30;;
7166;SDS011;3625;51.762;14.320;2023-11-19T02:43:37;4.77;;;4.37;;
7166;SDS011;3625;51.762;14.320;2023-11-19T02:46:06;5.13;;;4.73;;
7166;SDS011;3625;51.762;14.320;2023-11-19T02:48:38;5.17;;;4.73;;
7166;SDS011;3625;51.762;14.320;2023-11-19T02:51:08;5.03;;;4.60;;
7166;SDS011;3625;51.762;14.320;2023-11-19T02:53:37;4.80;;;4.40;;
7166;SDS011;3625;51.762;14.320;2023-11-19T02:56:07;5.27;;;4.77;;
7166;SDS011;3625;51.762;14.320;2023-11-19T02:58:47;5.13;;;4.73;;
7166;SDS011;3625;51.762;14.320;2023-11-19T03:01:21;5.17;;;4.67;;
7166;SDS011;3625;51.762;14.320;2023-11-19T03:03:57;5.07;;;4.67;;
7166;SDS011;3625;51.762;14.320;2023-11-19T03:06:29;4.47;;;4.10;;
7166;SDS011;3625;51.762;14.320;2023-11-19T03:08:59;4.60;;;4.20;;
7166;SDS011;3625;51.762;14.320;2023-11-19T03:11:33;5.40;;;4.90;;
7166;SDS011;3625;51.762;14.320;2023-11-19T03:14:03;5.50;;;5.00;;
7166;SDS011;3625;51.762;14.320;2023-11-19T03:16:32;5.17;;;4.67;;
7166;SDS011;3625;51.762;14.320;2023-11-19T03:19:01;4.80;;;4.40;;
7166;SDS011;3625;51.762;14.320;2023-11-19T03:21:31;4.70;;;4.30;;
7166;SDS011;3625;51.762;14.320;2023-11-19T03:24:00;4.90;;;4.50;;
7166;SDS011;3625;51.762;14.320;2023-11-19T03:26:29;4.97;;;4.57;;
7166;SDS011;3625;51.762;14.320;2023-11-19T03:29:00;4.70;;;4.30;;
7166;SDS011;3625;51.762;14.320;2023-11-19T03:31:30;4.87;;;4.47;;
7166;SDS011;3625;51.762;14.320;2023-11-19T03:33:59;4.90;;;4.50;;
7166;SDS011;3625;51.762;14.320;2023-11-19T03:36:31;5.20;;;4.70;;
7166;SDS011;3625;51.762;14.320;2023-11-19T03:39:01;6.20;;;5.60;;
7166;SDS011;3625;51.762;14.320;2023-11-19T03:41:30;5.40;;;4.90;;
7166;SDS011;3625;51.762;14.320;2023-11-19T03:44:03;5.00;;;4.60;;
7166;SDS011;3625;51.762;14.320;2023-11-19T03:46:33;5.50;;;5.00;;
7166;SDS011;3625;51.762;14.320;2023-11-19T03:49:03;5.33;;;4.83;;
7166;SDS011;3625;51.762;14.320;2023-11-19T03:51:33;5.50;;;5.00;;
7166;SDS011;3625;51.762;14.320;2023-11-19T03:54:03;6.57;;;5.30;;
7166;SDS011;3625;51.762;14.320;2023-11-19T03:56:32;5.60;;;5.10;;
7166;SDS011;3625;51.762;14.320;2023-11-19T03:59:01;5.93;;;5.43;;
7166;SDS011;3625;51.762;14.320;2023-11-19T04:01:37;5.20;;;4.80;;
7166;SDS011;3625;51.762;14.320;2023-11-19T04:04:06;5.40;;;4.90;;
7166;SDS011;3625;51.762;14.320;2023-11-19T04:06:35;5.07;;;4.57;;
7166;SDS011;3625;51.762;14.320;2023-11-19T04:09:04;5.10;;;4.70;;
7166;SDS011;3625;51.762;14.320;2023-11-19T04:11:33;5.23;;;4.83;;
7166;SDS011;3625;51.762;14.320;2023-11-19T04:14:05;5.40;;;4.90;;
7166;SDS011;3625;51.762;14.320;2023-11-19T04:16:34;5.57;;;5.07;;
7166;SDS011;3625;51.762;14.320;2023-11-19T04:19:05;5.40;;;4.90;;
7166;SDS011;3625;51.762;14.320;2023-11-19T04:21:34;4.77;;;4.37;;
7166;SDS011;3625;51.762;14.320;2023-11-19T04:24:03;5.07;;;4.67;;
7166;SDS011;3625;51.762;14.320;2023-11-19T04:26:33;4.97;;;4.57;;
7166;SDS011;3625;51.762;14.320;2023-11-19T04:29:03;5.37;;;4.97;;
7166;SDS011;3625;51.762;14.320;2023-11-19T04:31:35;4.80;;;4.40;;
7166;SDS011;3625;51.762;14.320;2023-11-19T04:34:04;4.60;;;4.20;;
7166;SDS011;3625;51.762;14.320;2023-11-19T04:36:33;5.50;;;5.00;;
7166;SDS011;3625;51.762;14.320;2023-11-19T04:39:04;4.40;;;4.00;;
7166;SDS011;3625;51.762;14.320;2023-11-19T04:41:36;6.33;;;4.90;;
7166;SDS011;3625;51.762;14.320;2023-11-19T04:44:14;4.83;;;4.43;;
7166;SDS011;3625;51.762;14.320;2023-11-19T04:46:44;5.13;;;4.53;;
7166;SDS011;3625;51.762;14.320;2023-11-19T04:49:13;4.57;;;4.17;;
7166;SDS011;3625;51.762;14.320;2023-11-19T04:51:43;4.20;;;3.90;;
7166;SDS011;3625;51.762;14.320;2023-11-19T04:54:13;4.67;;;4.27;;
7166;SDS011;3625;51.762;14.320;2023-11-19T04:56:44;4.13;;;3.83;;
7166;SDS011;3625;51.762;14.320;2023-11-19T04:59:15;4.60;;;4.20;;
7166;SDS011;3625;51.762;14.320;2023-11-19T05:01:46;4.43;;;4.13;;
7166;SDS011;3625;51.762;14.320;2023-11-19T05:04:15;4.10;;;3.80;;
7166;SDS011;3625;51.762;14.320;2023-11-19T05:06:45;4.40;;;3.97;;
7166;SDS011;3625;51.762;14.320;2023-11-19T05:09:14;4.30;;;4.00;;
7166;SDS011;3625;51.762;14.320;2023-11-19T05:11:43;4.40;;;4.10;;
7166;SDS011;3625;51.762;14.320;2023-11-19T05:14:16;6.17;;;4.80;;
7166;SDS011;3625;51.762;14.320;2023-11-19T05:16:47;4.20;;;3.90;;
7166;SDS011;3625;51.762;14.320;2023-11-19T05:19:16;4.10;;;3.77;;
7166;SDS011;3625;51.762;14.320;2023-11-19T05:21:48;4.50;;;4.10;;
7166;SDS011;3625;51.762;14.320;2023-11-19T05:24:19;4.33;;;4.03;;
7166;SDS011;3625;51.762;14.320;2023-11-19T05:26:48;3.67;;;3.37;;
7166;SDS011;3625;51.762;14.320;2023-11-19T05:29:18;4.40;;;4.00;;
7166;SDS011;3625;51.762;14.320;2023-11-19T05:31:47;4.50;;;4.20;;
7166;SDS011;3625;51.762;14.320;2023-11-19T05:34:16;4.87;;;3.80;;
7166;SDS011;3625;51.762;14.320;2023-11-19T05:36:45;3.87;;;3.57;;
7166;SDS011;3625;51.762;14.320;2023-11-19T05:39:14;4.57;;;3.50;;
7166;SDS011;3625;51.762;14.320;2023-11-19T05:41:46;3.80;;;3.50;;
7166;SDS011;3625;51.762;14.320;2023-11-19T05:44:16;3.93;;;3.63;;
7166;SDS011;3625;51.762;14.320;2023-11-19T05:46:47;3.97;;;3.57;;
7166;SDS011;3625;51.762;14.320;2023-11-19T05:49:16;3.80;;;3.50;;
7166;SDS011;3625;51.762;14.320;2023-11-19T05:51:45;3.90;;;3.60;;
7166;SDS011;3625;51.762;14.320;2023-11-19T05:54:13;4.07;;;3.67;;
7166;SDS011;3625;51.762;14.320;2023-11-19T05:56:46;4.17;;;3.77;;
7166;SDS011;3625;51.762;14.320;2023-11-19T05:59:16;3.70;;;3.40;;
7166;SDS011;3625;51.762;14.320;2023-11-19T06:01:46;3.73;;;3.43;;
7166;SDS011;3625;51.762;14.320;2023-11-19T06:04:15;3.73;;;3.50;;
7166;SDS011;3625;51.762;14.320;2023-11-19T06:06:44;4.50;;;3.83;;
7166;SDS011;3625;51.762;14.320;2023-11-19T06:09:13;3.80;;;3.50;;
7166;SDS011;3625;51.762;14.320;2023-11-19T06:11:43;3.63;;;3.33;;
7166;SDS011;3625;51.762;14.320;2023-11-19T06:14:14;4.20;;;3.47;;
7166;SDS011;3625;51.762;14.320;2023-11-19T06:16:46;4.27;;;3.73;;
7166;SDS011;3625;51.762;14.320;2023-11-19T06:19:15;3.80;;;3.50;;
7166;SDS011;3625;51.762;14.320;2023-11-19T06:21:44;3.57;;;3.30;;
7166;SDS011;3625;51.762;14.320;2023-11-19T06:24:13;4.67;;;3.57;;
7166;SDS011;3625;51.762;14.320;2023-11-19T06:26:42;4.23;;;3.87;;
7166;SDS011;3625;51.762;14.320;2023-11-19T06:29:11;4.33;;;3.93;;
7166;SDS011;3625;51.762;14.320;2023-11-19T06:31:46;3.50;;;3.20;;
7166;SDS011;3625;51.762;14.320;2023-11-19T06:34:16;3.70;;;3.30;;
7166;SDS011;3625;51.762;14.320;2023-11-19T06:36:45;3.60;;;3.30;;
7166;SDS011;3625;51.762;14.320;2023-11-19T06:39:15;3.23;;;2.93;;
7166;SDS011;3625;51.762;14.320;2023-11-19T06:41:45;3.70;;;3.40;;
7166;SDS011;3625;51.762;14.320;2023-11-19T06:44:14;3.67;;;3.37;;
7166;SDS011;3625;51.762;14.320;2023-11-19T06:46:43;3.10;;;2.90;;
7166;SDS011;3625;51.762;14.320;2023-11-19T06:49:14;3.83;;;3.53;;
7166;SDS011;3625;51.762;14.320;2023-11-19T06:51:43;3.53;;;3.33;;
7166;SDS011;3625;51.762;14.320;2023-11-19T06:54:12;3.63;;;3.33;;
7166;SDS011;3625;51.762;14.320;2023-11-19T06:56:42;3.83;;;3.50;;
7166;SDS011;3625;51.762;14.320;2023-11-19T06:59:14;3.80;;;3.50;;
7166;SDS011;3625;51.762;14.320;2023-11-19T07:01:46;4.00;;;3.70;;
7166;SDS011;3625;51.762;14.320;2023-11-19T07:04:16;3.67;;;3.37;;
7166;SDS011;3625;51.762;14.320;2023-11-19T07:06:45;3.77;;;3.57;;
7166;SDS011;3625;51.762;14.320;2023-11-19T07:09:14;4.83;;;3.90;;
7166;SDS011;3625;51.762;14.320;2023-11-19T07:11:45;4.20;;;3.80;;
7166;SDS011;3625;51.762;14.320;2023-11-19T07:14:14;3.90;;;3.60;;
7166;SDS011;3625;51.762;14.320;2023-11-19T07:16:43;4.07;;;3.57;;
7166;SDS011;3625;51.762;14.320;2023-11-19T07:19:13;4.43;;;4.03;;
7166;SDS011;3625;51.762;14.320;2023-11-19T07:21:43;4.40;;;4.00;;
7166;SDS011;3625;51.762;14.320;2023-11-19T07:24:12;4.20;;;3.80;;
7166;SDS011;3625;51.762;14.320;2023-11-19T07:26:42;5.10;;;3.70;;
7166;SDS011;3625;51.762;14.320;2023-11-19T07:29:11;3.60;;;3.30;;
7166;SDS011;3625;51.762;14.320;2023-11-19T07:31:55;3.80;;;3.50;;
7166;SDS011;3625;51.762;14.320;2023-11-19T07:34:24;3.60;;;3.30;;
7166;SDS011;3625;51.762;14.320;2023-11-19T07:36:54;3.47;;;3.17;;
7166;SDS011;3625;51.762;14.320;2023-11-19T07:39:25;3.93;;;3.57;;
7166;SDS011;3625;51.762;14.320;2023-11-19T07:41:54;3.80;;;3.50;;
7166;SDS011;3625;51.762;14.320;2023-11-19T07:44:24;3.80;;;3.50;;
7166;SDS011;3625;51.762;14.320;2023-11-19T07:46:53;3.67;;;3.37;;
7166;SDS011;3625;51.762;14.320;2023-11-19T07:49:22;4.40;;;4.00;;
7166;SDS011;3625;51.762;14.320;2023-11-19T07:51:51;4.10;;;3.77;;
7166;SDS011;3625;51.762;14.320;2023-11-19T07:54:21;3.77;;;3.47;;
7166;SDS011;3625;51.762;14.320;2023-11-19T07:56:52;3.50;;;3.20;;
7166;SDS011;3625;51.762;14.320;2023-11-19T07:59:21;3.10;;;2.90;;
7166;SDS011;3625;51.762;14.320;2023-11-19T08:01:50;3.70;;;3.40;;
7166;SDS011;3625;51.762;14.320;2023-11-19T08:04:19;3.97;;;3.67;;
7166;SDS011;3625;51.762;14.320;2023-11-19T08:06:48;3.10;;;2.90;;
7166;SDS011;3625;51.762;14.320;2023-11-19T08:09:21;3.70;;;3.40;;
7166;SDS011;3625;51.762;14.320;2023-11-19T08:11:50;3.47;;;3.20;;
7166;SDS011;3625;51.762;14.320;2023-11-19T08:14:20;3.07;;;2.87;;
7166;SDS011;3625;51.762;14.320;2023-11-19T08:16:49;3.50;;;3.20;;
7166;SDS011;3625;51.762;14.320;2023-11-19T08:19:18;3.23;;;3.03;;
7166;SDS011;3625;51.762;14.320;2023-11-19T08:21:47;3.73;;;3.37;;
7166;SDS011;3625;51.762;14.320;2023-11-19T08:24:16;3.40;;;3.10;;
7166;SDS011;3625;51.762;14.320;2023-11-19T08:26:46;3.77;;;3.47;;
7166;SDS011;3625;51.762;14.320;2023-11-19T08:29:28;3.73;;;3.30;;
7166;SDS011;3625;51.762;14.320;2023-11-19T08:31:57;3.80;;;3.50;;
7166;SDS011;3625;51.762;14.320;2023-11-19T08:34:30;3.67;;;3.37;;
7166;SDS011;3625;51.762;14.320;2023-11-19T08:36:59;3.70;;;3.40;;
7166;SDS011;3625;51.762;14.320;2023-11-19T08:39:28;3.60;;;3.30;;
7166;SDS011;3625;51.762;14.320;2023-11-19T08:41:59;3.57;;;3.27;;
7166;SDS011;3625;51.762;14.320;2023-11-19T08:44:28;3.50;;;3.20;;
7166;SDS011;3625;51.762;14.320;2023-11-19T08:46:57;3.90;;;3.60;;
7166;SDS011;3625;51.762;14.320;2023-11-19T08:49:26;3.87;;;3.30;;
7166;SDS011;3625;51.762;14.320;2023-11-19T08:51:55;4.07;;;3.67;;
7166;SDS011;3625;51.762;14.320;2023-11-19T08:54:24;4.03;;;3.60;;
7166;SDS011;3625;51.762;14.320;2023-11-19T08:56:53;3.50;;;3.20;;
7166;SDS011;3625;51.762;14.320;2023-11-19T08:59:24;4.23;;;3.40;;
7166;SDS011;3625;51.762;14.320;2023-11-19T09:01:53;3.90;;;3.60;;
7166;SDS011;3625;51.762;14.320;2023-11-19T09:04:22;3.80;;;3.50;;
7166;SDS011;3625;51.762;14.320;2023-11-19T09:06:51;3.57;;;3.23;;
7166;SDS011;3625;51.762;14.320;2023-11-19T09:09:21;3.50;;;3.20;;
7166;SDS011;3625;51.762;14.320;2023-11-19T09:11:50;3.70;;;3.40;;
7166;SDS011;3625;51.762;14.320;2023-11-19T09:14:20;4.17;;;3.67;;
7166;SDS011;3625;51.762;14.320;2023-11-19T09:16:54;4.03;;;3.47;;
7166;SDS011;3625;51.762;14.320;2023-11-19T09:19:23;3.43;;;3.13;;
7166;SDS011;3625;51.762;14.320;2023-11-19T09:21:53;3.27;;;3.07;;
7166;SDS011;3625;51.762;14.320;2023-11-19T09:24:22;4.00;;;3.70;;
7166;SDS011;3625;51.762;14.320;2023-11-19T09:26:52;3.20;;;3.00;;
7166;SDS011;3625;51.762;14.320;2023-11-19T09:29:24;3.27;;;3.07;;
7166;SDS011;3625;51.762;14.320;2023-11-19T09:31:54;3.03;;;2.83;;
7166;SDS011;3625;51.762;14.320;2023-11-19T09:34:24;3.33;;;3.03;;
7166;SDS011;3625;51.762;14.320;2023-11-19T09:36:53;3.50;;;3.20;;
7166;SDS011;3625;51.762;14.320;2023-11-19T09:39:22;3.40;;;3.10;;
7166;SDS011;3625;51.762;14.320;2023-11-19T09:41:52;3.37;;;3.07;;
7166;SDS011;3625;51.762;14.320;2023-11-19T09:44:21;3.67;;;3.33;;
7166;SDS011;3625;51.762;14.320;2023-11-19T09:46:56;3.77;;;3.43;;
7166;SDS011;3625;51.762;14.320;2023-11-19T09:49:31;3.20;;;3.00;;
7166;SDS011;3625;51.762;14.320;2023-11-19T09:52:02;3.23;;;2.97;;
7166;SDS011;3625;51.762;14.320;2023-11-19T09:54:32;3.20;;;2.90;;
7166;SDS011;3625;51.762;14.320;2023-11-19T09:57:01;2.97;;;2.77;;
7166;SDS011;3625;51.762;14.320;2023-11-19T09:59:32;3.20;;;2.90;;
7166;SDS011;3625;51.762;14.320;2023-11-19T10:02:03;3.30;;;3.00;;
7166;SDS011;3625;51.762;14.320;2023-11-19T10:04:35;3.20;;;2.90;;
7166;SDS011;3625;51.762;14.320;2023-11-19T10:07:05;2.90;;;2.70;;
7166;SDS011;3625;51.762;14.320;2023-11-19T10:09:35;2.80;;;2.60;;
7166;SDS011;3625;51.762;14.320;2023-11-19T10:12:04;3.13;;;2.93;;
7166;SDS011;3625;51.762;14.320;2023-11-19T10:14:33;3.13;;;2.63;;
7166;SDS011;3625;51.762;14.320;2023-11-19T10:17:09;3.17;;;2.83;;
7166;SDS011;3625;51.762;14.320;2023-11-19T10:19:39;8.73;;;7.17;;
7166;SDS011;3625;51.762;14.320;2023-11-19T10:22:09;4.10;;;3.70;;
7166;SDS011;3625;51.762;14.320;2023-11-19T10:24:40;3.90;;;2.43;;
7166;SDS011;3625;51.762;14.320;2023-11-19T10:27:14;3.40;;;2.90;;
7166;SDS011;3625;51.762;14.320;2023-11-19T10:29:45;4.70;;;2.60;;
7166;SDS011;3625;51.762;14.320;2023-11-19T10:32:15;3.77;;;2.47;;
7166;SDS011;3625;51.762;14.320;2023-11-19T10:34:52;2.50;;;2.20;;
7166;SDS011;3625;51.762;14.320;2023-11-19T10:37:39;1.80;;;1.70;;
7166;SDS011;3625;51.762;14.320;2023-11-19T10:40:08;2.80;;;1.70;;
7166;SDS011;3625;51.762;14.320;2023-11-19T10:42:38;1.93;;;1.73;;
7166;SDS011;3625;51.762;14.320;2023-11-19T10:45:21;3.20;;;1.50;;
7166;SDS011;3625;51.762;14.320;2023-11-19T10:47:52;2.38;;;1.60;;
7166;SDS011;3625;51.762;14.320;2023-11-19T10:50:24;2.03;;;1.60;;
7166;SDS011;3625;51.762;14.320;2023-11-19T10:52:55;3.03;;;1.60;;
7166;SDS011;3625;51.762;14.320;2023-11-19T10:55:27;4.00;;;1.60;;
7166;SDS011;3625;51.762;14.320;2023-11-19T10:57:59;2.38;;;1.75;;
7166;SDS011;3625;51.762;14.320;2023-11-19T11:00:30;4.13;;;2.38;;
7166;SDS011;3625;51.762;14.320;2023-11-19T11:03:15;3.83;;;1.85;;
7166;SDS011;3625;51.762;14.320;2023-11-19T11:05:46;2.55;;;1.50;;
7166;SDS011;3625;51.762;14.320;2023-11-19T11:08:16;3.37;;;1.80;;
7166;SDS011;3625;51.762;14.320;2023-11-19T11:10:48;3.72;;;1.52;;
7166;SDS011;3625;51.762;14.320;2023-11-19T11:13:23;3.83;;;2.05;;
7166;SDS011;3625;51.762;14.320;2023-11-19T11:15:56;2.72;;;1.60;;
7166;SDS011;3625;51.762;14.320;2023-11-19T11:18:29;4.47;;;2.08;;
7166;SDS011;3625;51.762;14.320;2023-11-19T11:20:58;3.60;;;1.70;;
7166;SDS011;3625;51.762;14.320;2023-11-19T11:23:37;4.18;;;2.00;;
7166;SDS011;3625;51.762;14.320;2023-11-19T11:26:54;3.85;;;1.85;;
7166;SDS011;3625;51.762;14.320;2023-11-19T11:29:56;3.88;;;1.83;;
7166;SDS011;3625;51.762;14.320;2023-11-19T11:32:41;6.45;;;2.13;;
7166;SDS011;3625;51.762;14.320;2023-11-19T11:35:30;4.53;;;1.92;;
7166;SDS011;3625;51.762;14.320;2023-11-19T11:38:21;4.68;;;2.13;;
7166;SDS011;3625;51.762;14.320;2023-11-19T11:43:47;4.07;;;2.10;;
7166;SDS011;3625;51.762;14.320;2023-11-19T11:49:27;6.45;;;1.80;;
7166;SDS011;3625;51.762;14.320;2023-11-19T11:52:04;4.28;;;1.77;;
7166;SDS011;3625;51.762;14.320;2023-11-19T11:54:33;3.33;;;1.48;;
7166;SDS011;3625;51.762;14.320;2023-11-19T11:57:07;3.00;;;1.80;;
7166;SDS011;3625;51.762;14.320;2023-11-19T11:59:47;3.75;;;1.90;;
7166;SDS011;3625;51.762;14.320;2023-11-19T12:02:18;7.15;;;2.35;;
7166;SDS011;3625;51.762;14.320;2023-11-19T12:04:50;6.25;;;2.58;;
7166;SDS011;3625;51.762;14.320;2023-11-19T12:07:22;3.65;;;1.88;;
7166;SDS011;3625;51.762;14.320;2023-11-19T12:09:53;6.65;;;2.10;;
7166;SDS011;3625;51.762;14.320;2023-11-19T12:12:35;5.45;;;2.35;;
7166;SDS011;3625;51.762;14.320;2023-11-19T12:15:06;4.78;;;2.35;;
7166;SDS011;3625;51.762;14.320;2023-11-19T12:17:40;3.85;;;2.30;;
7166;SDS011;3625;51.762;14.320;2023-11-19T12:20:17;6.63;;;3.15;;
7166;SDS011;3625;51.762;14.320;2023-11-19T12:22:52;4.97;;;2.03;;
7166;SDS011;3625;51.762;14.320;2023-11-19T12:25:21;6.05;;;2.28;;
7166;SDS011;3625;51.762;14.320;2023-11-19T12:27:51;4.65;;;2.03;;
7166;SDS011;3625;51.762;14.320;2023-11-19T12:30:21;4.40;;;2.03;;
7166;SDS011;3625;51.762;14.320;2023-11-19T12:32:52;3.60;;;2.22;;
7166;SDS011;3625;51.762;14.320;2023-11-19T12:35:22;7.70;;;2.90;;
7166;SDS011;3625;51.762;14.320;2023-11-19T12:37:52;4.78;;;2.40;;
7166;SDS011;3625;51.762;14.320;2023-11-19T12:40:22;3.60;;;2.10;;
7166;SDS011;3625;51.762;14.320;2023-11-19T12:42:55;4.68;;;2.13;;
7166;SDS011;3625;51.762;14.320;2023-11-19T12:45:24;7.47;;;2.83;;
7166;SDS011;3625;51.762;14.320;2023-11-19T12:48:04;3.90;;;2.30;;
7166;SDS011;3625;51.762;14.320;2023-11-19T12:50:52;8.65;;;2.88;;
7166;SDS011;3625;51.762;14.320;2023-11-19T12:53:25;5.22;;;2.42;;
7166;SDS011;3625;51.762;14.320;2023-11-19T12:55:55;4.07;;;2.35;;
7166;SDS011;3625;51.762;14.320;2023-11-19T12:58:48;5.90;;;2.13;;
7166;SDS011;3625;51.762;14.320;2023-11-19T13:01:17;4.28;;;2.30;;
7166;SDS011;3625;51.762;14.320;2023-11-19T13:03:47;5.18;;;2.47;;
7166;SDS011;3625;51.762;14.320;2023-11-19T13:06:18;6.00;;;2.75;;
7166;SDS011;3625;51.762;14.320;2023-11-19T13:08:50;6.97;;;2.70;;
7166;SDS011;3625;51.762;14.320;2023-11-19T13:11:37;5.43;;;2.38;;
7166;SDS011;3625;51.762;14.320;2023-11-19T13:14:07;6.28;;;2.55;;
7166;SDS011;3625;51.762;14.320;2023-11-19T13:16:38;4.07;;;2.35;;
7166;SDS011;3625;51.762;14.320;2023-11-19T13:19:10;5.70;;;2.63;;
7166;SDS011;3625;51.762;14.320;2023-11-19T13:21:45;6.10;;;2.53;;
7166;SDS011;3625;51.762;14.320;2023-11-19T13:24:16;6.82;;;2.83;;
7166;SDS011;3625;51.762;14.320;2023-11-19T13:26:45;9.02;;;3.30;;
7166;SDS011;3625;51.762;14.320;2023-11-19T13:29:14;7.32;;;3.22;;
7166;SDS011;3625;51.762;14.320;2023-11-19T13:31:43;9.77;;;3.45;;
7166;SDS011;3625;51.762;14.320;2023-11-19T13:34:12;6.10;;;2.92;;
7166;SDS011;3625;51.762;14.320;2023-11-19T13:36:41;8.65;;;2.78;;
7166;SDS011;3625;51.762;14.320;2023-11-19T13:39:10;8.23;;;3.05;;
7166;SDS011;3625;51.762;14.320;2023-11-19T13:41:40;8.25;;;3.35;;
7166;SDS011;3625;51.762;14.320;2023-11-19T13:44:10;5.68;;;2.60;;
7166;SDS011;3625;51.762;14.320;2023-11-19T13:46:39;7.30;;;2.80;;
7166;SDS011;3625;51.762;14.320;2023-11-19T13:49:08;7.45;;;2.83;;
7166;SDS011;3625;51.762;14.320;2023-11-19T13:51:37;7.88;;;2.90;;
7166;SDS011;3625;51.762;14.320;2023-11-19T13:54:06;11.13;;;3.60;;
7166;SDS011;3625;51.762;14.320;2023-11-19T13:56:35;13.68;;;3.47;;
7166;SDS011;3625;51.762;14.320;2023-11-19T13:59:06;8.23;;;2.88;;
7166;SDS011;3625;51.762;14.320;2023-11-19T14:01:35;6.35;;;2.90;;
7166;SDS011;3625;51.762;14.320;2023-11-19T14:04:05;5.40;;;3.22;;
7166;SDS011;3625;51.762;14.320;2023-11-19T14:06:36;7.43;;;3.22;;
7166;SDS011;3625;51.762;14.320;2023-11-19T14:09:06;7.78;;;3.42;;
7166;SDS011;3625;51.762;14.320;2023-11-19T14:11:36;8.20;;;3.10;;
7166;SDS011;3625;51.762;14.320;2023-11-19T14:14:06;7.10;;;3.05;;
7166;SDS011;3625;51.762;14.320;2023-11-19T14:16:36;5.63;;;3.25;;
7166;SDS011;3625;51.762;14.320;2023-11-19T14:19:05;5.50;;;2.70;;
7166;SDS011;3625;51.762;14.320;2023-11-19T14:21:34;5.97;;;2.88;;
7166;SDS011;3625;51.762;14.320;2023-11-19T14:24:03;6.45;;;2.85;;
7166;SDS011;3625;51.762;14.320;2023-11-19T14:26:33;8.15;;;3.28;;
7166;SDS011;3625;51.762;14.320;2023-11-19T14:29:02;8.15;;;2.97;;
7166;SDS011;3625;51.762;14.320;2023-11-19T14:31:33;6.47;;;3.10;;
7166;SDS011;3625;51.762;14.320;2023-11-19T14:34:05;7.47;;;2.80;;
7166;SDS011;3625;51.762;14.320;2023-11-19T14:36:34;9.65;;;3.08;;
7166;SDS011;3625;51.762;14.320;2023-11-19T14:39:06;6.35;;;2.83;;
7166;SDS011;3625;51.762;14.320;2023-11-19T14:41:34;6.50;;;2.70;;
7166;SDS011;3625;51.762;14.320;2023-11-19T14:44:03;7.13;;;3.15;;
7166;SDS011;3625;51.762;14.320;2023-11-19T14:46:34;6.83;;;2.93;;
7166;SDS011;3625;51.762;14.320;2023-11-19T14:49:03;6.68;;;2.65;;
7166;SDS011;3625;51.762;14.320;2023-11-19T14:51:35;5.70;;;2.83;;
7166;SDS011;3625;51.762;14.320;2023-11-19T14:54:05;3.92;;;2.88;;
7166;SDS011;3625;51.762;14.320;2023-11-19T14:56:36;4.97;;;2.70;;
7166;SDS011;3625;51.762;14.320;2023-11-19T14:59:05;8.23;;;3.10;;
7166;SDS011;3625;51.762;14.320;2023-11-19T15:01:36;9.35;;;3.17;;
7166;SDS011;3625;51.762;14.320;2023-11-19T15:04:07;4.57;;;2.83;;
7166;SDS011;3625;51.762;14.320;2023-11-19T15:06:36;6.60;;;3.70;;
7166;SDS011;3625;51.762;14.320;2023-11-19T15:09:10;8.48;;;3.35;;
7166;SDS011;3625;51.762;14.320;2023-11-19T15:11:43;7.75;;;3.20;;
7166;SDS011;3625;51.762;14.320;2023-11-19T15:14:12;7.63;;;3.35;;
7166;SDS011;3625;51.762;14.320;2023-11-19T15:16:48;7.63;;;3.45;;
7166;SDS011;3625;51.762;14.320;2023-11-19T15:19:18;10.68;;;3.30;;
7166;SDS011;3625;51.762;14.320;2023-11-19T15:21:47;7.85;;;3.05;;
7166;SDS011;3625;51.762;14.320;2023-11-19T15:24:21;7.60;;;2.97;;
7166;SDS011;3625;51.762;14.320;2023-11-19T15:26:52;8.13;;;2.73;;
7166;SDS011;3625;51.762;14.320;2023-11-19T15:29:41;6.72;;;3.13;;
7166;SDS011;3625;51.762;14.320;2023-11-19T15:32:12;7.47;;;3.30;;